sensor_id;sensor_type;location;lat;lon;timestamp;temperature;humidity
52103;DHT22;38101;53.126;6.878;2024-01-30T15:54:46;8.50;99.90
52103;DHT22;38101;53.126;6.878;2024-01-30T15:57:11;8.50;99.90
52103;DHT22;38101;53.126;6.878;2024-01-30T15:59:37;8.60;99.90
52103;DHT22;38101;53.126;6.878;2024-01-30T16:02:03;8.60;99.90
52103;DHT22;38101;53.126;6.878;2024-01-30T16:04:29;8.60;99.90
52103;DHT22;38101;53.126;6.878;2024-01-30T16:06:55;8.70;99.90
52103;DHT22;38101;53.126;6.878;2024-01-30T16:09:23;8.60;99.90
52103;DHT22;38101;53.126;6.878;2024-01-30T16:11:49;8.60;99.90
52103;DHT22;38101;53.126;6.878;2024-01-30T16:14:15;8.60;99.90
52103;DHT22;38101;53.126;6.878;2024-01-30T16:16:40;8.60;99.90
52103;DHT22;38101;53.126;6.878;2024-01-30T16:19:06;8.60;99.90
52103;DHT22;38101;53.126;6.878;2024-01-30T16:21:32;8.70;99.90
52103;DHT22;38101;53.126;6.878;2024-01-30T16:23:58;8.70;99.90
52103;DHT22;38101;53.126;6.878;2024-01-30T16:26:24;8.70;99.90
52103;DHT22;38101;53.126;6.878;2024-01-30T16:28:50;8.70;99.90
52103;DHT22;38101;53.126;6.878;2024-01-30T16:31:16;8.60;99.90
52103;DHT22;38101;53.126;6.878;2024-01-30T16:33:49;8.60;99.90
52103;DHT22;38101;53.126;6.878;2024-01-30T16:36:15;8.70;99.90
52103;DHT22;38101;53.126;6.878;2024-01-30T16:38:41;8.70;99.90
52103;DHT22;38101;53.126;6.878;2024-01-30T16:41:07;8.60;99.90
52103;DHT22;38101;53.126;6.878;2024-01-30T16:43:33;8.60;99.90
52103;DHT22;38101;53.126;6.878;2024-01-30T16:45:59;8.60;99.90
52103;DHT22;38101;53.126;6.878;2024-01-30T16:48:26;8.60;99.90
52103;DHT22;38101;53.126;6.878;2024-01-30T16:50:52;8.60;99.90
52103;DHT22;38101;53.126;6.878;2024-01-30T16:53:18;8.60;99.90
52103;DHT22;38101;53.126;6.878;2024-01-30T16:55:44;8.50;99.90
52103;DHT22;38101;53.126;6.878;2024-01-30T16:58:09;8.60;99.90
52103;DHT22;38101;53.126;6.878;2024-01-30T17:00:37;8.60;99.90
52103;DHT22;38101;53.126;6.878;2024-01-30T17:03:03;8.60;99.90
52103;DHT22;38101;53.126;6.878;2024-01-30T17:05:29;8.60;99.90
52103;DHT22;38101;53.126;6.878;2024-01-30T17:07:55;8.60;99.90
52103;DHT22;38101;53.126;6.878;2024-01-30T17:10:21;8.50;99.90
52103;DHT22;38101;53.126;6.878;2024-01-30T17:12:46;8.60;99.90
52103;DHT22;38101;53.126;6.878;2024-01-30T17:15:12;8.50;99.90
52103;DHT22;38101;53.126;6.878;2024-01-30T17:17:38;8.40;99.90
52103;DHT22;38101;53.126;6.878;2024-01-30T17:20:04;8.40;99.90
52103;DHT22;38101;53.126;6.878;2024-01-30T17:22:30;8.50;99.90
52103;DHT22;38101;53.126;6.878;2024-01-30T17:24:56;8.40;99.90
52103;DHT22;38101;53.126;6.878;2024-01-30T17:27:22;8.50;99.90
52103;DHT22;38101;53.126;6.878;2024-01-30T17:29:48;8.40;99.90
52103;DHT22;38101;53.126;6.878;2024-01-30T17:32:13;8.40;99.90
52103;DHT22;38101;53.126;6.878;2024-01-30T17:34:39;8.40;99.90
52103;DHT22;38101;53.126;6.878;2024-01-30T17:37:05;8.30;99.90
52103;DHT22;38101;53.126;6.878;2024-01-30T17:39:31;8.40;99.90
52103;DHT22;38101;53.126;6.878;2024-01-30T17:41:56;8.40;99.90
52103;DHT22;38101;53.126;6.878;2024-01-30T17:44:23;8.40;99.90
52103;DHT22;38101;53.126;6.878;2024-01-30T17:46:50;8.40;99.90
52103;DHT22;38101;53.126;6.878;2024-01-30T17:49:16;8.40;99.90
52103;DHT22;38101;53.126;6.878;2024-01-30T17:51:42;8.40;99.90
52103;DHT22;38101;53.126;6.878;2024-01-30T17:54:08;8.40;99.90
52103;DHT22;38101;53.126;6.878;2024-01-30T17:56:34;8.30;99.90
52103;DHT22;38101;53.126;6.878;2024-01-30T17:58:59;8.40;99.90
52103;DHT22;38101;53.126;6.878;2024-01-30T18:01:25;8.40;99.90
52103;DHT22;38101;53.126;6.878;2024-01-30T18:03:51;8.20;99.90
52103;DHT22;38101;53.126;6.878;2024-01-30T18:06:23;8.10;99.90
52103;DHT22;38101;53.126;6.878;2024-01-30T18:08:49;8.20;99.90
52103;DHT22;38101;53.126;6.878;2024-01-30T18:11:14;8.10;99.90
52103;DHT22;38101;53.126;6.878;2024-01-30T18:13:41;8.10;99.90
52103;DHT22;38101;53.126;6.878;2024-01-30T18:16:07;8.00;99.90
52103;DHT22;38101;53.126;6.878;2024-01-30T18:18:32;8.00;99.90
52103;DHT22;38101;53.126;6.878;2024-01-30T18:20:58;8.00;99.90
52103;DHT22;38101;53.126;6.878;2024-01-30T18:23:24;8.00;99.90
52103;DHT22;38101;53.126;6.878;2024-01-30T18:25:50;8.00;99.90
52103;DHT22;38101;53.126;6.878;2024-01-30T18:28:25;8.00;99.90
52103;DHT22;38101;53.126;6.878;2024-01-30T18:30:51;8.10;99.90
52103;DHT22;38101;53.126;6.878;2024-01-30T18:33:16;8.10;99.90
52103;DHT22;38101;53.126;6.878;2024-01-30T18:35:43;8.00;99.90
52103;DHT22;38101;53.126;6.878;2024-01-30T18:38:09;8.10;99.90
52103;DHT22;38101;53.126;6.878;2024-01-30T18:40:34;8.00;99.90
52103;DHT22;38101;53.126;6.878;2024-01-30T18:43:00;8.00;99.90
52103;DHT22;38101;53.126;6.878;2024-01-30T18:45:30;8.00;99.90
52103;DHT22;38101;53.126;6.878;2024-01-30T18:47:55;8.10;99.90
52103;DHT22;38101;53.126;6.878;2024-01-30T18:50:21;8.00;99.90
52103;DHT22;38101;53.126;6.878;2024-01-30T18:52:47;7.90;99.90
52103;DHT22;38101;53.126;6.878;2024-01-30T18:55:12;7.90;99.90
52103;DHT22;38101;53.126;6.878;2024-01-30T18:57:38;7.90;99.90
52103;DHT22;38101;53.126;6.878;2024-01-30T19:00:04;7.90;99.90
52103;DHT22;38101;53.126;6.878;2024-01-30T19:02:30;7.80;99.90
52103;DHT22;38101;53.126;6.878;2024-01-30T19:04:56;7.80;99.90
52103;DHT22;38101;53.126;6.878;2024-01-30T19:07:24;7.80;99.90
52103;DHT22;38101;53.126;6.878;2024-01-30T19:09:50;7.70;99.90
52103;DHT22;38101;53.126;6.878;2024-01-30T19:12:18;7.60;99.90
52103;DHT22;38101;53.126;6.878;2024-01-30T19:14:43;7.70;99.90
52103;DHT22;38101;53.126;6.878;2024-01-30T19:17:09;7.70;99.90
52103;DHT22;38101;53.126;6.878;2024-01-30T19:19:34;7.70;99.90
52103;DHT22;38101;53.126;6.878;2024-01-30T19:22:00;7.70;99.90
52103;DHT22;38101;53.126;6.878;2024-01-30T19:24:26;7.60;99.90
52103;DHT22;38101;53.126;6.878;2024-01-30T19:26:51;7.50;99.90
52103;DHT22;38101;53.126;6.878;2024-01-30T19:29:17;7.40;99.90
52103;DHT22;38101;53.126;6.878;2024-01-30T19:31:46;7.50;99.90
52103;DHT22;38101;53.126;6.878;2024-01-30T19:34:12;7.50;99.90
52103;DHT22;38101;53.126;6.878;2024-01-30T19:36:38;7.50;99.90
52103;DHT22;38101;53.126;6.878;2024-01-30T19:39:05;7.60;99.90
52103;DHT22;38101;53.126;6.878;2024-01-30T19:41:42;7.50;99.90
52103;DHT22;38101;53.126;6.878;2024-01-30T19:44:10;7.40;99.90
52103;DHT22;38101;53.126;6.878;2024-01-30T19:46:36;7.50;99.90
52103;DHT22;38101;53.126;6.878;2024-01-30T19:49:02;7.50;99.90
52103;DHT22;38101;53.126;6.878;2024-01-30T19:51:28;7.60;99.90
52103;DHT22;38101;53.126;6.878;2024-01-30T19:53:54;7.50;99.90
52103;DHT22;38101;53.126;6.878;2024-01-30T19:56:20;7.40;99.90
52103;DHT22;38101;53.126;6.878;2024-01-30T19:58:47;7.40;99.90
52103;DHT22;38101;53.126;6.878;2024-01-30T20:01:13;7.20;99.90
52103;DHT22;38101;53.126;6.878;2024-01-30T20:03:39;7.20;99.90
52103;DHT22;38101;53.126;6.878;2024-01-30T20:06:05;7.20;99.90
52103;DHT22;38101;53.126;6.878;2024-01-30T20:08:30;7.30;99.90
52103;DHT22;38101;53.126;6.878;2024-01-30T20:11:00;7.40;99.90
52103;DHT22;38101;53.126;6.878;2024-01-30T20:13:25;7.40;99.90
52103;DHT22;38101;53.126;6.878;2024-01-30T20:15:51;7.40;99.90
